CheckWX is a tool to help pilots better visualize weather data.  It is not intended as a substitute for an official pre-flight weather briefing.

14:40:18 UTC

CYTH METAR
Thompson Airport
Thompson, Canada
Current

2 hours ago

CYTH 251309Z 36010G15KT 15SM OVC014 M02/M05 A2985 RMK SC8 SLP122
Observed
Apr-25 @ 13:09 UTC
Wind
  • 360° at 10 KTS
  • Gusting to 15 KTS
Visibility
15 SM
Flight Rules
MVFR
Cloud Levels
  • Overcast at 1,400' AGL
Temperature
-2°C / 28°F
Dewpoint
-5°C / 23°F
Humidity
80%
Altimeter
29.85" Hg
Pressure
1010.82 hPa
Previous

2 hours ago

CYTH 251300Z 36009G15KT 320V030 15SM OVC015 M02/M05 A2984 RMK SC8 SLP121
Observed
Apr-25 @ 13:00 UTC
Wind
  • 360° at 9 KTS
  • Gusting to 15 KTS
Visibility
15 SM
Flight Rules
MVFR
Cloud Levels
  • Overcast at 1,500' AGL
Temperature
-2°C / 28°F
Dewpoint
-5°C / 23°F
Humidity
80%
Altimeter
29.84" Hg
Pressure
1010.52 hPa
Previous

3 hours ago

CYTH 251200Z 33010G16KT 15SM OVC016 M02/M05 A2981 RMK SC8 SLP111
Observed
Apr-25 @ 12:00 UTC
Wind
  • 330° at 10 KTS
  • Gusting to 16 KTS
Visibility
15 SM
Flight Rules
MVFR
Cloud Levels
  • Overcast at 1,600' AGL
Temperature
-2°C / 28°F
Dewpoint
-5°C / 23°F
Humidity
80%
Altimeter
29.81" Hg
Pressure
1009.52 hPa